createdAt,value
2022-09-09T00:00:02.598Z,15.3
2022-09-09T00:05:02.455Z,15.3
2022-09-09T00:10:02.646Z,15.3
2022-09-09T00:15:02.657Z,15.3
2022-09-09T00:20:02.010Z,15.3
2022-09-09T00:25:02.071Z,15.3
2022-09-09T00:30:02.264Z,15.3
2022-09-09T00:35:02.405Z,15.3
2022-09-09T00:40:02.637Z,15.3
2022-09-09T00:45:01.802Z,15.3
2022-09-09T00:50:02.008Z,15.3
2022-09-09T00:55:02.053Z,15.3
2022-09-09T01:00:02.390Z,15.3
2022-09-09T01:05:02.405Z,15.3
2022-09-09T01:10:02.694Z,15.3
2022-09-09T01:15:02.079Z,15.3
2022-09-09T01:20:01.801Z,15.3
2022-09-09T01:25:02.053Z,15.3
2022-09-09T01:30:02.966Z,15.3
2022-09-09T01:35:02.247Z,15.3
2022-09-09T01:40:02.463Z,15.3
2022-09-09T01:45:02.626Z,15.3
2022-09-09T01:50:01.684Z,15.3
2022-09-09T01:55:01.791Z,15.3
2022-09-09T02:00:02.342Z,15.3
2022-09-09T02:05:02.077Z,15.3
2022-09-09T02:10:02.213Z,15.3
2022-09-09T02:15:02.415Z,15.3
2022-09-09T02:20:02.509Z,15.3
2022-09-09T02:25:01.648Z,15.3
2022-09-09T02:30:02.654Z,15.3
2022-09-09T02:35:01.949Z,15.3
2022-09-09T02:40:02.367Z,15.3
2022-09-09T02:45:01.856Z,15.3
2022-09-09T02:50:01.938Z,15.3
2022-09-09T02:55:02.204Z,15.3
2022-09-09T03:00:04.932Z,15.3
2022-09-09T03:05:03.457Z,15.3
2022-09-09T03:10:02.715Z,15.3
2022-09-09T03:15:01.707Z,15.3
2022-09-09T03:20:02.080Z,15.3
2022-09-09T03:25:01.991Z,15.3
2022-09-09T03:30:04.120Z,15.3
2022-09-09T03:35:03.051Z,15.3
2022-09-09T03:40:02.707Z,15.3
2022-09-09T03:45:03.529Z,15.3
2022-09-09T03:50:02.073Z,15.3
2022-09-09T03:55:02.241Z,15.3
2022-09-09T04:00:02.478Z,15.3
2022-09-09T04:05:03.483Z,15.3
2022-09-09T04:10:02.463Z,15.3
2022-09-09T04:15:02.020Z,15.3
2022-09-09T04:20:02.068Z,15.3
2022-09-09T04:25:02.252Z,15.3
2022-09-09T04:30:02.198Z,15.3
2022-09-09T04:35:03.408Z,15.3
2022-09-09T04:40:02.594Z,15.3
2022-09-09T04:45:02.018Z,15.3
2022-09-09T04:50:02.020Z,15.3
2022-09-09T04:55:02.262Z,15.3
2022-09-09T05:00:02.418Z,15.3
2022-09-09T05:05:03.285Z,15.3
2022-09-09T05:10:02.631Z,15.3
2022-09-09T05:15:01.793Z,15.3
2022-09-09T05:20:01.906Z,15.3
2022-09-09T05:25:02.134Z,15.3
2022-09-09T05:30:02.313Z,15.3
2022-09-09T05:35:03.148Z,15.3
2022-09-09T05:40:03.524Z,15.3
2022-09-09T05:45:01.718Z,15.3
2022-09-09T05:50:01.853Z,15.3
2022-09-09T05:55:01.974Z,15.3
2022-09-09T06:00:02.387Z,15.3
2022-09-09T06:05:03.104Z,15.3
2022-09-09T06:10:03.258Z,15.6
2022-09-09T06:15:02.692Z,15.8
2022-09-09T06:20:01.785Z,15.9
2022-09-09T06:25:02.675Z,15.9
2022-09-09T06:30:02.262Z,16
2022-09-09T06:35:03.050Z,16.1
2022-09-09T06:40:03.381Z,16.1
2022-09-09T06:45:02.190Z,16.2
2022-09-09T06:50:02.525Z,16.1
2022-09-09T06:55:02.384Z,16.1
2022-09-09T07:00:02.728Z,16.2
2022-09-09T07:05:02.692Z,16.1
2022-09-09T07:10:03.053Z,16.2
2022-09-09T07:15:02.151Z,16.3
2022-09-09T07:20:02.283Z,16.4
2022-09-09T07:25:02.380Z,16.5
2022-09-09T07:30:02.792Z,16.5
2022-09-09T07:35:02.778Z,16.7
2022-09-09T07:40:03.031Z,16.6
2022-09-09T07:45:03.406Z,16.6
2022-09-09T07:50:02.525Z,16.6
2022-09-09T07:55:02.645Z,16.6
2022-09-09T08:00:01.777Z,16.7
2022-09-09T08:05:02.719Z,17.3
2022-09-09T08:10:03.040Z,17.6
2022-09-09T08:15:02.381Z,17.7
2022-09-09T08:20:02.552Z,18
2022-09-09T08:25:02.548Z,18.1
2022-09-09T08:30:01.756Z,18
2022-09-09T08:35:07.961Z,18
2022-09-09T08:40:03.182Z,18.3
2022-09-09T08:45:03.220Z,18.6
2022-09-09T08:50:02.236Z,18.7
2022-09-09T08:55:02.407Z,18.6
2022-09-09T09:00:02.644Z,18.7
2022-09-09T09:05:02.529Z,18.7
2022-09-09T09:10:02.645Z,18.6
2022-09-09T09:15:03.111Z,18.6
2022-09-09T09:20:02.223Z,18.6
2022-09-09T09:25:02.395Z,18.7
2022-09-09T09:35:03.340Z,18.8
2022-09-09T09:45:02.716Z,19.1
2022-09-09T09:50:01.987Z,19.4
2022-09-09T09:55:06.830Z,19.6
2022-09-09T10:00:03.291Z,19.7
2022-09-09T10:05:03.152Z,19.7
2022-09-09T10:10:03.309Z,19.8
2022-09-09T10:15:02.657Z,19.9
2022-09-09T10:20:01.928Z,20.1
2022-09-09T10:25:01.940Z,20.2
2022-09-09T10:30:02.694Z,20.4
2022-09-09T10:35:03.126Z,20.2
2022-09-09T10:40:03.342Z,20.3
2022-09-09T10:45:03.638Z,20.9
2022-09-09T10:50:02.602Z,21.5
2022-09-09T10:55:02.565Z,21.5
2022-09-09T11:00:01.909Z,22
2022-09-09T11:05:02.691Z,22.3
2022-09-09T11:10:02.918Z,22.3
2022-09-09T11:15:03.132Z,22.5
2022-09-09T11:20:02.471Z,22.7
2022-09-09T11:25:02.643Z,23
2022-09-09T11:30:01.918Z,23.1
2022-09-09T11:35:02.646Z,23.2
2022-09-09T11:40:03.376Z,23.2
2022-09-09T11:45:03.048Z,23.8
2022-09-09T11:50:02.072Z,24.2
2022-09-09T11:55:02.227Z,24
2022-09-09T12:00:03.237Z,24.4
2022-09-09T12:05:03.435Z,24.9
2022-09-09T12:10:02.490Z,25
2022-09-09T12:15:02.854Z,24.4
2022-09-09T12:20:02.304Z,24.7
2022-09-09T12:25:02.176Z,24.9
2022-09-09T12:30:02.443Z,24.9
2022-09-09T12:35:03.293Z,24.9
2022-09-09T12:40:03.474Z,24.9
2022-09-09T12:45:02.740Z,24.9
2022-09-09T12:50:01.923Z,24.9
2022-09-09T12:55:02.092Z,24.9
2022-09-09T13:00:02.831Z,24.9
2022-09-09T13:05:03.305Z,24.9
2022-09-09T13:10:03.448Z,24.9
2022-09-09T13:15:02.735Z,24.9
2022-09-09T13:20:01.934Z,24.9
2022-09-09T13:25:02.075Z,24.9
2022-09-09T13:30:03.322Z,24.9
2022-09-09T13:35:03.266Z,24.9
2022-09-09T13:40:03.424Z,24.9
2022-09-09T13:45:02.665Z,24.9
2022-09-09T13:50:01.936Z,24.9
2022-09-09T13:55:02.117Z,24.9
2022-09-09T14:00:04.902Z,24.9
2022-09-09T14:05:03.436Z,24.9
2022-09-09T14:10:03.473Z,24.9
2022-09-09T14:15:02.668Z,24.9
2022-09-09T14:20:02.327Z,24.9
2022-09-09T14:25:02.091Z,24.9
2022-09-09T14:30:02.807Z,24.9
2022-09-09T14:35:03.198Z,24.9
2022-09-09T14:40:03.525Z,24.9
2022-09-09T14:45:02.709Z,24.9
2022-09-09T14:50:01.937Z,24.9
2022-09-09T14:55:02.218Z,24.9
2022-09-09T15:00:03.675Z,24.9
2022-09-09T15:05:03.455Z,24.9
2022-09-09T15:10:03.348Z,24.9
2022-09-09T15:15:02.684Z,24.9
2022-09-09T15:20:01.964Z,24.9
2022-09-09T15:25:02.056Z,24.9
2022-09-09T15:30:02.391Z,24.9
2022-09-09T15:35:03.219Z,24.9
2022-09-09T15:40:03.393Z,24.9
2022-09-09T15:45:02.694Z,24.9
2022-09-09T15:50:01.957Z,24.9
2022-09-09T15:55:01.975Z,24.9
2022-09-09T16:00:03.130Z,24.9
2022-09-09T16:05:03.391Z,24.9
2022-09-09T16:10:03.318Z,24.9
2022-09-09T16:15:03.535Z,24.9
2022-09-09T16:20:01.845Z,24.9
2022-09-09T16:25:01.838Z,24.9
2022-09-09T16:30:02.357Z,24.9
2022-09-09T16:35:03.797Z,24.9
2022-09-09T16:40:03.504Z,24.9
2022-09-09T16:45:02.822Z,24.9
2022-09-09T16:50:01.948Z,24.9
2022-09-09T16:55:02.042Z,24.9
2022-09-09T17:00:02.446Z,24.9
2022-09-09T17:05:03.224Z,24.9
2022-09-09T17:10:03.355Z,24.9
2022-09-09T17:15:02.823Z,24.9
2022-09-09T17:20:01.889Z,24.9
2022-09-09T17:25:01.946Z,24.9
2022-09-09T17:30:02.475Z,24.9
2022-09-09T17:35:03.121Z,24.9
2022-09-09T17:40:03.420Z,24.9
2022-09-09T17:45:02.952Z,24.9
2022-09-09T17:50:02.317Z,24.9
2022-09-09T17:55:02.491Z,24.9
2022-09-09T18:00:03.652Z,24.9
2022-09-09T18:05:02.722Z,24.9
2022-09-09T18:10:02.892Z,24.9
2022-09-09T18:15:04.176Z,24.9
2022-09-09T18:20:02.368Z,24.9
2022-09-09T18:25:01.767Z,24.9
2022-09-09T18:30:01.865Z,24.9
2022-09-09T18:35:03.324Z,24.9
2022-09-09T18:40:03.186Z,24.9
2022-09-09T18:45:03.011Z,24.9
2022-09-09T18:50:02.309Z,24.9
2022-09-09T18:55:02.314Z,24.9
2022-09-09T19:00:02.475Z,24.9
2022-09-09T19:05:03.367Z,24.9
2022-09-09T19:10:02.601Z,24.9
2022-09-09T19:15:02.830Z,24.9
2022-09-09T19:20:02.156Z,24.9
2022-09-09T19:25:02.365Z,24.9
2022-09-09T19:30:02.553Z,24.9
2022-09-09T19:35:03.626Z,24.9
2022-09-09T19:40:02.622Z,24.9
2022-09-09T19:45:03.087Z,24.9
2022-09-09T19:50:02.190Z,24.9
2022-09-09T19:55:03.059Z,24.9
2022-09-09T20:00:02.599Z,24.9
2022-09-09T20:05:03.320Z,24.9
2022-09-09T20:10:03.688Z,24.9
2022-09-09T20:15:02.736Z,24.9
2022-09-09T20:20:01.886Z,24.9
2022-09-09T20:25:01.972Z,24.9
2022-09-09T20:30:02.339Z,24.9
2022-09-09T20:35:03.221Z,24.9
2022-09-09T20:40:03.467Z,24.9
2022-09-09T20:45:01.714Z,24.9
2022-09-09T20:50:01.991Z,24.9
2022-09-09T20:55:02.167Z,24.9
2022-09-09T21:00:02.471Z,24.9
2022-09-09T21:05:03.332Z,24.9
2022-09-09T21:10:03.717Z,24.9
2022-09-09T21:15:02.683Z,24.9
2022-09-09T21:20:01.897Z,24.9
2022-09-09T21:25:01.937Z,24.9
2022-09-09T21:30:02.132Z,24.9
2022-09-09T21:35:02.990Z,24.9
2022-09-09T21:40:03.324Z,24.9
2022-09-09T21:45:02.146Z,24.9
2022-09-09T21:50:02.282Z,24.9
2022-09-09T21:55:02.381Z,24.9
2022-09-09T22:00:02.733Z,24.9
2022-09-09T22:05:03.365Z,24.9
2022-09-09T22:10:01.731Z,24.9
2022-09-09T22:15:01.922Z,24.9
2022-09-09T22:20:02.993Z,24.9
2022-09-09T22:25:02.261Z,24.9
2022-09-09T22:30:02.445Z,24.9
2022-09-09T22:35:02.642Z,24.9
2022-09-09T22:40:02.752Z,24.9
2022-09-09T22:45:01.852Z,24.9
2022-09-09T22:50:01.827Z,24.9
2022-09-09T22:55:02.596Z,24.9
2022-09-09T23:00:03.788Z,24.9
2022-09-09T23:05:03.081Z,24.9
2022-09-09T23:10:02.538Z,24.9
2022-09-09T23:15:03.760Z,24.9
2022-09-09T23:20:01.713Z,24.9
2022-09-09T23:25:01.830Z,24.9
2022-09-09T23:30:02.032Z,24.9
2022-09-09T23:35:02.172Z,24.9
2022-09-09T23:40:02.405Z,24.9
2022-09-09T23:45:02.502Z,24.9
2022-09-09T23:50:02.555Z,24.9
2022-09-09T23:55:01.732Z,24.9
